Time;durP1;ratioP1;P1;durP2;ratioP2;P2;SDS_P1;SDS_P2;PMS_P1;PMS_P2;Temp;Humidity;BMP_temperature;BMP_pressure;BME280_temperature;BME280_humidity;BME280_pressure;Samples;Min_cycle;Max_cycle;Signal;HPM_P1;HPM_P2
2022/06/28 00:00:27;;;;;;;22.53;11.87;;;13.70;99.90;;;;;;5075934;28;20187;-83
2022/06/28 00:02:53;;;;;;;22.47;12.47;;;13.70;99.90;;;;;;5075134;28;20215;-82
2022/06/28 00:05:18;;;;;;;19.50;12.10;;;13.70;99.90;;;;;;5075803;28;20266;-83
2022/06/28 00:07:44;;;;;;;16.37;11.33;;;13.60;99.90;;;;;;5075611;28;20237;-83
2022/06/28 00:10:12;;;;;;;20.97;12.43;;;13.70;99.90;;;;;;5076963;28;20179;-83
2022/06/28 00:12:38;;;;;;;19.53;12.40;;;13.60;99.90;;;;;;5076137;28;20222;-82
2022/06/28 00:17:51;;;;;;;18.23;12.40;;;13.50;99.90;;;;;;5077459;28;20179;-83
2022/06/28 00:20:16;;;;;;;19.80;13.20;;;13.60;99.90;;;;;;5076715;28;20185;-83
2022/06/28 00:22:42;;;;;;;16.87;12.30;;;13.50;99.90;;;;;;5075698;28;20215;-83
2022/06/28 00:25:08;;;;;;;24.90;12.93;;;13.40;99.90;;;;;;5075831;28;20208;-83
2022/06/28 00:27:34;;;;;;;20.80;12.33;;;13.50;99.90;;;;;;5075045;28;20176;-82
2022/06/28 00:30:00;;;;;;;19.93;13.13;;;13.50;99.90;;;;;;5075163;28;20204;-83
2022/06/28 00:32:28;;;;;;;19.57;11.40;;;13.50;99.90;;;;;;5074918;28;20229;-83
2022/06/28 00:34:53;;;;;;;25.27;13.67;;;13.40;99.90;;;;;;5074815;28;20211;-82
2022/06/28 00:37:19;;;;;;;17.67;12.33;;;13.50;99.90;;;;;;5075192;28;20241;-83
2022/06/28 00:39:45;;;;;;;22.60;14.17;;;13.50;99.90;;;;;;5074862;28;20237;-82
2022/06/28 00:42:11;;;;;;;23.03;14.23;;;13.50;99.90;;;;;;5074882;28;20207;-83
2022/06/28 00:44:38;;;;;;;21.50;13.33;;;13.50;99.90;;;;;;5075201;28;20651;-82
2022/06/28 00:47:04;;;;;;;18.00;12.57;;;13.50;99.90;;;;;;5075317;28;20182;-83
2022/06/28 00:49:30;;;;;;;21.33;13.37;;;13.40;99.90;;;;;;5077332;28;20191;-83
2022/06/28 00:51:58;;;;;;;21.27;13.30;;;13.40;99.90;;;;;;5076524;28;20184;-82
2022/06/28 00:54:25;;;;;;;19.87;13.93;;;13.40;99.90;;;;;;5075402;28;20211;-82
2022/06/28 00:56:51;;;;;;;20.47;13.13;;;13.40;99.90;;;;;;5074782;28;20551;-82
2022/06/28 00:59:17;;;;;;;22.80;13.43;;;13.40;99.90;;;;;;5074764;28;20171;-83
2022/06/28 01:01:43;;;;;;;23.10;14.37;;;13.30;99.90;;;;;;5075930;28;20286;-83
2022/06/28 01:04:09;;;;;;;20.50;13.47;;;13.30;99.90;;;;;;5075443;28;20182;-83
2022/06/28 01:06:39;;;;;;;19.63;12.40;;;13.20;99.90;;;;;;5074773;28;20180;-83
2022/06/28 01:09:05;;;;;;;19.77;13.70;;;13.20;99.90;;;;;;5075771;28;20242;-83
2022/06/28 01:11:32;;;;;;;23.93;13.43;;;13.20;99.90;;;;;;5073802;28;20186;-82
2022/06/28 01:14:03;;;;;;;19.83;13.63;;;13.20;99.90;;;;;;5073799;28;20265;-82
2022/06/28 01:16:30;;;;;;;22.50;13.97;;;13.20;99.90;;;;;;5073574;28;20164;-83
2022/06/28 01:18:56;;;;;;;24.03;14.77;;;13.10;99.90;;;;;;5073479;28;20177;-83
2022/06/28 01:21:25;;;;;;;23.27;14.97;;;13.20;99.90;;;;;;5073540;28;20210;-83
2022/06/28 01:23:50;;;;;;;19.83;14.57;;;13.10;99.90;;;;;;5073334;28;20203;-83
2022/06/28 01:26:21;;;;;;;22.63;15.20;;;13.10;99.90;;;;;;5072849;28;20180;-82
2022/06/28 01:28:51;;;;;;;19.63;13.87;;;13.10;99.90;;;;;;5072967;28;20180;-83
2022/06/28 01:31:18;;;;;;;20.97;15.13;;;13.20;99.90;;;;;;5073965;28;20615;-83
2022/06/28 01:33:44;;;;;;;24.73;15.23;;;13.20;99.90;;;;;;5073278;28;20200;-82
2022/06/28 01:36:10;;;;;;;24.40;15.60;;;13.10;99.90;;;;;;5075336;28;20878;-82
2022/06/28 01:38:40;;;;;;;26.83;16.07;;;13.20;99.90;;;;;;5074718;28;20180;-82
2022/06/28 01:41:07;;;;;;;25.83;16.17;;;13.10;99.90;;;;;;5074335;28;20722;-82
2022/06/28 01:43:36;;;;;;;28.43;16.93;;;13.10;99.90;;;;;;5074335;28;20268;-82
2022/06/28 01:46:05;;;;;;;27.40;16.80;;;13.00;99.90;;;;;;5075112;28;20540;-83
2022/06/28 01:48:32;;;;;;;27.20;16.87;;;13.00;99.90;;;;;;5074438;28;20175;-83
2022/06/28 01:50:58;;;;;;;27.47;17.10;;;13.00;99.90;;;;;;5073691;28;20173;-82
2022/06/28 01:53:24;;;;;;;26.63;15.53;;;12.90;99.90;;;;;;5074352;28;20226;-82
2022/06/28 01:55:50;;;;;;;25.17;16.23;;;12.90;99.90;;;;;;5074146;28;20184;-82
2022/06/28 01:58:16;;;;;;;24.73;15.53;;;12.90;99.90;;;;;;5074155;28;20246;-82
2022/06/28 02:00:42;;;;;;;28.77;16.47;;;13.00;99.90;;;;;;5073910;28;20181;-82
2022/06/28 02:03:07;;;;;;;25.37;16.53;;;12.90;99.90;;;;;;5073816;28;20557;-82
2022/06/28 02:05:34;;;;;;;28.37;17.63;;;12.90;99.90;;;;;;5073865;28;20274;-82
2022/06/28 02:08:00;;;;;;;31.83;19.60;;;12.90;99.90;;;;;;5073516;28;20183;-82
2022/06/28 02:10:25;;;;;;;40.20;20.90;;;13.00;99.90;;;;;;5074824;28;20173;-82
2022/06/28 02:12:51;;;;;;;33.17;19.93;;;13.10;99.90;;;;;;5075142;28;20211;-82
2022/06/28 02:15:17;;;;;;;29.30;19.20;;;13.10;99.90;;;;;;5075287;28;20184;-82
2022/06/28 02:17:44;;;;;;;37.07;19.83;;;12.90;99.90;;;;;;5075036;28;20221;-82
2022/06/28 02:20:11;;;;;;;30.63;18.70;;;13.10;99.90;;;;;;5074891;28;20553;-82
2022/06/28 02:22:37;;;;;;;36.00;18.23;;;13.00;99.90;;;;;;5074700;28;20691;-82
2022/06/28 02:25:03;;;;;;;38.47;20.43;;;13.00;99.90;;;;;;5075148;28;20177;-82
2022/06/28 02:27:29;;;;;;;37.40;19.50;;;13.00;99.90;;;;;;5075150;28;20215;-82
2022/06/28 02:29:54;;;;;;;29.47;19.17;;;12.90;99.90;;;;;;5075365;28;20643;-82
2022/06/28 02:32:20;;;;;;;36.27;20.60;;;12.90;99.90;;;;;;5075847;28;20205;-82
2022/06/28 02:40:24;;;;;;;37.80;22.27;;;12.90;99.90;;;;;;5077201;28;20208;-82
2022/06/28 02:42:52;;;;;;;36.83;21.30;;;12.90;99.90;;;;;;5074360;28;20208;-82
2022/06/28 02:45:19;;;;;;;38.63;23.00;;;12.80;99.90;;;;;;5075189;28;20191;-82
2022/06/28 02:47:44;;;;;;;41.77;24.07;;;12.80;99.90;;;;;;5074763;28;20231;-82
2022/06/28 02:50:10;;;;;;;40.33;23.63;;;12.80;99.90;;;;;;5077527;28;20165;-82
2022/06/28 02:52:36;;;;;;;43.10;25.13;;;12.80;99.90;;;;;;5074582;28;20696;-82
2022/06/28 02:55:03;;;;;;;39.97;24.63;;;12.80;99.90;;;;;;5075407;28;20180;-82
2022/06/28 02:57:29;;;;;;;45.57;25.83;;;12.90;99.90;;;;;;5074110;28;20180;-82
2022/06/28 02:59:55;;;;;;;46.50;25.53;;;12.80;99.90;;;;;;5074384;28;20259;-82
2022/06/28 03:02:20;;;;;;;42.57;25.30;;;12.80;99.90;;;;;;5073169;28;20711;-82
2022/06/28 03:04:46;;;;;;;48.53;25.90;;;12.80;99.90;;;;;;5071537;28;20182;-82
2022/06/28 03:07:12;;;;;;;46.90;26.97;;;12.80;99.90;;;;;;5071652;28;20177;-82
2022/06/28 03:09:37;;;;;;;43.80;25.63;;;12.80;99.90;;;;;;5071442;28;20246;-82
2022/06/28 03:12:06;;;;;;;43.77;24.90;;;12.80;99.90;;;;;;5071500;28;20239;-82
2022/06/28 03:14:32;;;;;;;48.40;24.83;;;12.90;99.90;;;;;;5071523;28;20178;-82
2022/06/28 03:16:58;;;;;;;42.17;24.80;;;12.90;99.90;;;;;;5073559;28;20170;-82
2022/06/28 03:19:24;;;;;;;43.07;25.33;;;12.90;99.90;;;;;;5074865;28;20177;-82
2022/06/28 03:21:50;;;;;;;47.00;25.83;;;12.90;99.90;;;;;;5074910;28;20206;-82
2022/06/28 03:24:16;;;;;;;43.13;25.13;;;12.90;99.90;;;;;;5074221;28;20269;-82
2022/06/28 03:26:42;;;;;;;43.13;25.13;;;12.90;99.90;;;;;;5074344;28;20179;-82
2022/06/28 03:29:08;;;;;;;47.10;25.00;;;12.80;99.90;;;;;;5074919;28;20262;-82
2022/06/28 03:31:34;;;;;;;42.07;24.13;;;12.70;99.90;;;;;;5074381;28;20177;-82
2022/06/28 03:34:00;;;;;;;41.13;24.10;;;12.70;99.90;;;;;;5076892;28;20195;-82
2022/06/28 03:36:25;;;;;;;42.03;24.97;;;12.70;99.90;;;;;;5077709;28;20233;-82
2022/06/28 03:38:51;;;;;;;46.43;26.07;;;12.70;99.90;;;;;;5077233;28;20246;-82
2022/06/28 03:41:22;;;;;;;44.27;24.57;;;12.70;99.90;;;;;;5077539;28;20242;-82
2022/06/28 03:43:54;;;;;;;44.37;25.07;;;12.70;99.90;;;;;;5078019;28;20211;-81
2022/06/28 03:46:20;;;;;;;45.03;26.37;;;12.70;99.90;;;;;;5078409;28;20170;-82
2022/06/28 03:48:47;;;;;;;47.70;26.93;;;12.60;99.90;;;;;;5078655;28;20207;-82
2022/06/28 03:51:13;;;;;;;43.37;25.97;;;12.70;99.90;;;;;;5077488;28;20179;-82
2022/06/28 03:53:39;;;;;;;42.90;24.77;;;12.60;99.90;;;;;;5077914;28;20202;-82
2022/06/28 03:56:06;;;;;;;47.47;26.53;;;12.70;99.90;;;;;;5079074;28;20575;-82
2022/06/28 03:58:32;;;;;;;46.57;25.47;;;12.70;99.90;;;;;;5079000;28;20173;-82
2022/06/28 04:00:58;;;;;;;49.10;26.17;;;12.70;99.90;;;;;;5078504;28;20179;-82
2022/06/28 04:03:24;;;;;;;51.43;25.37;;;12.70;99.90;;;;;;5079007;28;20213;-82
2022/06/28 04:05:50;;;;;;;43.77;26.03;;;12.60;99.90;;;;;;5078944;28;20172;-82
2022/06/28 04:08:15;;;;;;;51.17;26.83;;;12.70;99.90;;;;;;5085208;28;20170;-82
2022/06/28 04:10:41;;;;;;;49.40;26.40;;;12.80;99.90;;;;;;5081566;28;20221;-82
2022/06/28 04:13:07;;;;;;;49.13;27.00;;;12.80;99.90;;;;;;5077845;28;20206;-83
2022/06/28 04:15:33;;;;;;;46.40;26.93;;;12.80;99.90;;;;;;5079367;28;20215;-83
2022/06/28 04:17:59;;;;;;;54.00;26.57;;;12.90;99.90;;;;;;5077975;28;20194;-82
2022/06/28 04:20:24;;;;;;;44.43;26.17;;;12.90;99.90;;;;;;5079210;28;20186;-83
2022/06/28 04:22:50;;;;;;;45.37;26.23;;;13.00;99.90;;;;;;5078437;28;20218;-83
2022/06/28 04:25:16;;;;;;;46.67;25.97;;;12.90;99.90;;;;;;5078328;28;20184;-83
2022/06/28 04:27:42;;;;;;;43.03;25.23;;;12.90;99.90;;;;;;5077089;28;20175;-83
2022/06/28 04:30:08;;;;;;;41.30;24.23;;;13.10;99.90;;;;;;5077227;28;20173;-83
2022/06/28 04:32:34;;;;;;;35.60;21.70;;;13.40;99.90;;;;;;5078053;28;20228;-83
2022/06/28 04:35:00;;;;;;;31.67;20.83;;;13.60;99.90;;;;;;5078341;28;20180;-83
2022/06/28 04:37:25;;;;;;;28.40;17.33;;;13.80;99.90;;;;;;5077198;28;20185;-83
2022/06/28 04:39:51;;;;;;;20.30;13.70;;;14.20;99.90;;;;;;5077619;28;20180;-83
2022/06/28 04:42:18;;;;;;;22.17;12.60;;;14.60;99.90;;;;;;5076914;28;20307;-83
2022/06/28 04:44:44;;;;;;;19.27;11.37;;;14.90;99.90;;;;;;5076492;28;20212;-83
2022/06/28 04:47:10;;;;;;;16.03;10.40;;;15.10;99.90;;;;;;5076452;28;20658;-83
2022/06/28 04:49:36;;;;;;;14.80;10.50;;;15.10;99.90;;;;;;5076169;28;20211;-83
2022/06/28 04:52:02;;;;;;;17.80;10.07;;;15.30;99.90;;;;;;5076997;28;20187;-83
2022/06/28 04:54:28;;;;;;;15.70;9.13;;;15.60;99.90;;;;;;5080326;28;20182;-84
2022/06/28 04:56:54;;;;;;;15.53;9.13;;;16.00;99.90;;;;;;5076149;28;20177;-86
2022/06/28 04:59:19;;;;;;;14.70;8.95;;;16.00;99.90;;;;;;5076933;28;20637;-86
2022/06/28 05:01:45;;;;;;;16.10;9.45;;;16.10;99.90;;;;;;5077279;28;20608;-86
2022/06/28 05:04:11;;;;;;;14.35;8.73;;;16.10;99.90;;;;;;5077110;28;20180;-85
2022/06/28 05:06:37;;;;;;;18.13;9.88;;;15.70;99.90;;;;;;5077113;28;20187;-86
2022/06/28 05:09:03;;;;;;;13.25;8.65;;;15.90;99.90;;;;;;5094721;28;20169;-86
2022/06/28 05:11:29;;;;;;;13.75;10.00;;;16.20;99.90;;;;;;5074623;28;20522;-85
2022/06/28 05:13:55;;;;;;;13.52;9.68;;;16.30;99.90;;;;;;5072618;28;20208;-83
2022/06/28 05:16:21;;;;;;;13.88;9.55;;;16.30;99.90;;;;;;5089025;28;20180;-85
2022/06/28 05:18:47;;;;;;;12.60;9.15;;;16.20;99.90;;;;;;5089275;28;20575;-83
2022/06/28 05:21:13;;;;;;;13.07;8.65;;;16.60;99.90;;;;;;5088619;28;20545;-83
2022/06/28 05:23:39;;;;;;;12.25;8.60;;;16.90;99.90;;;;;;5072331;28;20273;-83
2022/06/28 05:26:05;;;;;;;12.20;7.97;;;16.90;99.90;;;;;;5072691;28;20586;-83
2022/06/28 05:28:31;;;;;;;15.52;7.85;;;17.00;99.90;;;;;;5076598;28;20172;-83
2022/06/28 05:30:57;;;;;;;13.85;7.32;;;17.00;99.90;;;;;;5094585;28;20275;-84
2022/06/28 05:33:23;;;;;;;12.75;7.07;;;17.00;99.90;;;;;;5077277;28;20197;-84
2022/06/28 05:35:49;;;;;;;10.48;6.57;;;16.90;99.90;;;;;;5093774;28;20366;-84
2022/06/28 05:38:15;;;;;;;11.50;6.90;;;17.20;99.90;;;;;;5093780;28;20196;-84
2022/06/28 05:40:41;;;;;;;11.85;6.20;;;17.70;99.90;;;;;;5077552;28;20173;-84
2022/06/28 05:43:07;;;;;;;9.75;6.03;;;17.90;99.90;;;;;;5094631;28;20278;-84
2022/06/28 05:45:33;;;;;;;9.52;5.47;;;17.80;99.90;;;;;;5078144;28;20257;-84
2022/06/28 05:47:59;;;;;;;9.07;5.57;;;18.00;99.90;;;;;;5094638;28;20176;-84
2022/06/28 05:50:25;;;;;;;12.20;5.40;;;18.00;99.90;;;;;;5095910;28;20180;-84
2022/06/28 05:52:51;;;;;;;9.93;4.90;;;18.60;99.90;;;;;;5094348;28;20196;-84
2022/06/28 05:55:17;;;;;;;7.80;4.75;;;18.60;99.90;;;;;;5076385;28;20571;-84
2022/06/28 05:57:42;;;;;;;7.28;4.78;;;18.80;99.90;;;;;;5077810;28;20187;-84
2022/06/28 06:00:09;;;;;;;8.52;4.60;;;18.80;99.90;;;;;;5075328;28;20172;-84
2022/06/28 06:02:35;;;;;;;7.03;4.70;;;19.20;99.90;;;;;;5075456;28;20207;-84
2022/06/28 06:05:02;;;;;;;9.07;4.47;;;18.70;99.90;;;;;;5077483;28;20169;-83
2022/06/28 06:07:29;;;;;;;12.02;4.45;;;19.40;99.90;;;;;;5075955;28;20157;-83
2022/06/28 06:09:55;;;;;;;15.80;4.95;;;19.60;99.90;;;;;;5093026;28;20511;-84
2022/06/28 06:12:21;;;;;;;7.30;4.43;;;19.80;99.90;;;;;;5092523;28;20204;-84
2022/06/28 06:14:47;;;;;;;9.35;5.28;;;19.60;99.90;;;;;;5091491;28;20637;-83
2022/06/28 06:17:13;;;;;;;8.90;4.82;;;19.80;99.90;;;;;;5074234;28;20172;-83
2022/06/28 06:19:38;;;;;;;12.02;4.60;;;19.90;99.90;;;;;;5090372;28;20184;-83
2022/06/28 06:22:04;;;;;;;8.40;4.50;;;19.80;99.90;;;;;;5073419;28;20201;-83
2022/06/28 06:24:30;;;;;;;9.70;4.65;;;20.10;99.90;;;;;;5073079;28;20176;-83
2022/06/28 06:26:55;;;;;;;13.90;4.63;;;20.10;99.90;;;;;;5073487;28;20169;-83
2022/06/28 06:29:21;;;;;;;8.75;4.60;;;20.20;99.90;;;;;;5073263;28;20173;-82
2022/06/28 06:31:47;;;;;;;8.40;4.43;;;20.00;99.90;;;;;;5071680;28;20215;-82
2022/06/28 06:34:14;;;;;;;9.43;4.50;;;20.30;99.90;;;;;;5072968;28;20184;-82
2022/06/28 06:36:40;;;;;;;8.93;4.57;;;20.60;99.90;;;;;;5073765;28;20184;-84
2022/06/28 06:39:06;;;;;;;8.63;4.78;;;20.30;99.90;;;;;;5088843;28;20234;-84
2022/06/28 06:41:32;;;;;;;11.15;4.90;;;20.30;99.90;;;;;;5072859;28;20597;-85
2022/06/28 06:43:57;;;;;;;10.93;4.90;;;20.50;99.90;;;;;;5072365;28;20303;-85
2022/06/28 06:46:23;;;;;;;8.85;4.57;;;21.10;99.90;;;;;;5072858;28;20168;-85
2022/06/28 06:48:49;;;;;;;12.93;4.90;;;21.40;99.90;;;;;;5071759;28;20226;-84
2022/06/28 06:51:14;;;;;;;7.50;4.57;;;21.10;99.90;;;;;;5071370;28;20173;-82
2022/06/28 06:53:40;;;;;;;10.75;4.80;;;21.60;99.90;;;;;;5074856;28;20556;-84
2022/06/28 06:56:06;;;;;;;8.23;4.57;;;20.80;99.90;;;;;;5075395;28;20228;-82
2022/06/28 06:58:31;;;;;;;9.30;5.00;;;21.50;99.90;;;;;;5075919;28;20179;-83
2022/06/28 07:00:57;;;;;;;8.10;5.18;;;21.70;99.90;;;;;;5075565;28;20218;-82
2022/06/28 07:03:23;;;;;;;11.43;5.20;;;21.60;99.90;;;;;;5074219;28;20333;-83
2022/06/28 07:05:49;;;;;;;12.85;5.18;;;21.30;99.90;;;;;;5090933;28;20175;-84
2022/06/28 07:08:15;;;;;;;10.50;5.22;;;21.60;99.90;;;;;;5073382;28;20172;-84
2022/06/28 07:10:40;;;;;;;10.82;5.30;;;21.80;99.90;;;;;;5074530;28;20168;-84
2022/06/28 07:13:06;;;;;;;8.27;5.78;;;22.10;99.90;;;;;;5074180;28;20708;-84
2022/06/28 07:15:32;;;;;;;11.18;5.07;;;21.80;99.90;;;;;;5075021;28;20226;-85
2022/06/28 07:17:57;;;;;;;11.50;5.35;;;21.90;99.90;;;;;;5074673;28;20223;-83
2022/06/28 07:20:23;;;;;;;10.75;5.47;;;21.90;99.90;;;;;;5075965;28;20739;-84
2022/06/28 07:22:52;;;;;;;10.40;5.97;;;22.10;99.90;;;;;;5076026;28;20775;-83
2022/06/28 07:25:18;;;;;;;9.70;5.13;;;21.70;99.90;;;;;;5075881;28;20222;-83
2022/06/28 07:27:46;;;;;;;6.53;4.95;;;22.30;99.90;;;;;;5075915;28;20692;-83
2022/06/28 07:30:12;;;;;;;8.38;5.25;;;22.40;99.90;;;;;;5076239;28;20222;-83
2022/06/28 07:32:38;;;;;;;9.77;5.32;;;22.40;99.90;;;;;;5075703;28;20660;-82
2022/06/28 07:35:05;;;;;;;10.98;4.93;;;22.70;99.90;;;;;;5093868;28;20173;-83
2022/06/28 07:37:31;;;;;;;9.65;5.60;;;22.40;99.90;;;;;;5092922;28;20610;-82
2022/06/28 07:39:56;;;;;;;8.90;5.60;;;22.30;99.90;;;;;;5076026;28;20207;-82
2022/06/28 07:42:22;;;;;;;14.43;6.22;;;22.40;99.90;;;;;;5076797;28;20239;-83
2022/06/28 07:44:48;;;;;;;10.90;5.40;;;22.70;99.90;;;;;;5075174;28;20195;-83
2022/06/28 07:47:13;;;;;;;8.30;5.45;;;22.90;99.90;;;;;;5075644;28;20183;-83
2022/06/28 07:52:44;;;;;;;11.80;5.57;;;22.70;99.90;;;;;;5077566;28;20204;-82
2022/06/28 07:55:13;;;;;;;11.25;4.30;;;22.70;99.90;;;;;;5065475;28;20193;-81
2022/06/28 07:57:38;;;;;;;11.32;5.95;;;23.30;99.90;;;;;;5058058;28;20169;-81
2022/06/28 08:00:06;;;;;;;7.82;5.15;;;22.90;99.90;;;;;;5059432;28;20268;-79
2022/06/28 08:02:32;;;;;;;9.52;5.10;;;22.40;99.90;;;;;;5076185;28;20208;-80
2022/06/28 08:04:58;;;;;;;11.55;5.93;;;23.20;99.90;;;;;;5068282;28;20169;-80
2022/06/28 08:07:24;;;;;;;8.02;5.35;;;22.70;99.90;;;;;;5055136;28;20260;-78
2022/06/28 08:09:50;;;;;;;11.75;5.47;;;22.90;99.90;;;;;;5056511;28;20261;-80
2022/06/28 08:12:16;;;;;;;11.57;5.22;;;23.60;99.90;;;;;;5058185;28;20300;-80
2022/06/28 08:14:42;;;;;;;10.60;5.00;;;23.70;99.90;;;;;;5061264;28;20260;-82
2022/06/28 08:17:07;;;;;;;10.18;4.57;;;23.40;99.90;;;;;;5060201;28;20193;-81
2022/06/28 08:19:34;;;;;;;5.30;3.40;;;23.70;99.90;;;;;;5059737;28;20161;-82
2022/06/28 08:22:00;;;;;;;7.90;4.53;;;24.00;99.90;;;;;;5058780;28;20362;-81
2022/06/28 08:24:26;;;;;;;10.35;4.25;;;24.50;99.90;;;;;;5059811;28;20178;-80
2022/06/28 08:26:53;;;;;;;9.82;5.00;;;24.50;99.90;;;;;;5057441;28;20914;-80
2022/06/28 08:29:20;;;;;;;8.60;4.70;;;23.90;99.90;;;;;;5058202;28;20170;-80
2022/06/28 08:31:47;;;;;;;10.45;5.00;;;23.90;99.90;;;;;;5059486;28;20169;-80
2022/06/28 08:34:12;;;;;;;7.65;3.97;;;24.20;99.90;;;;;;5076024;28;20307;-81
2022/06/28 08:36:38;;;;;;;4.57;3.42;;;24.20;99.90;;;;;;5076211;28;20208;-79
2022/06/28 08:39:05;;;;;;;9.23;3.50;;;24.70;99.90;;;;;;5072191;28;20571;-79
2022/06/28 08:41:32;;;;;;;7.00;2.80;;;24.60;99.50;;;;;;5071316;28;20583;-78
2022/06/28 08:43:58;;;;;;;9.57;3.25;;;24.50;99.90;;;;;;5065772;28;20262;-79
2022/06/28 08:46:24;;;;;;;6.03;3.22;;;25.20;99.40;;;;;;5061117;28;20170;-80
2022/06/28 08:49:11;;;;;;;5.07;3.70;;;24.80;99.50;;;;;;5057420;28;20176;-82
2022/06/28 08:51:38;;;;;;;6.40;3.75;;;25.00;98.40;;;;;;5056883;28;20212;-79
2022/06/28 08:54:04;;;;;;;6.50;3.13;;;24.90;99.00;;;;;;5056858;28;20189;-79
2022/06/28 08:56:30;;;;;;;7.40;3.58;;;25.00;96.90;;;;;;5056897;28;20593;-82
2022/06/28 08:58:59;;;;;;;6.88;3.28;;;25.20;98.00;;;;;;5055079;28;20540;-81
2022/06/28 09:01:26;;;;;;;5.38;3.10;;;25.30;96.20;;;;;;5055697;28;20173;-81
2022/06/28 09:03:54;;;;;;;3.05;2.22;;;25.00;97.90;;;;;;5054955;28;20220;-81
2022/06/28 09:06:21;;;;;;;4.85;2.45;;;25.50;96.60;;;;;;5071037;28;20181;-82
2022/06/28 09:08:46;;;;;;;8.55;2.80;;;25.30;97.40;;;;;;5055012;28;20174;-80
2022/06/28 09:11:12;;;;;;;6.45;2.90;;;25.60;95.80;;;;;;5071943;28;20555;-79
2022/06/28 09:13:41;;;;;;;7.22;2.78;;;25.10;96.20;;;;;;5072426;28;20247;-80
2022/06/28 09:16:06;;;;;;;6.00;2.78;;;25.30;95.30;;;;;;5073868;28;20260;-80
2022/06/28 09:18:35;;;;;;;3.40;2.00;;;25.20;94.80;;;;;;5072211;28;20739;-80
2022/06/28 09:21:04;;;;;;;2.67;1.77;;;25.70;95.90;;;;;;5053860;28;20263;-80
2022/06/28 09:23:35;;;;;;;5.25;2.47;;;25.70;95.40;;;;;;5072690;28;20200;-81
2022/06/28 09:26:10;;;;;;;8.73;2.00;;;25.50;95.90;;;;;;5074145;28;20219;-81
2022/06/28 09:28:40;;;;;;;5.40;2.40;;;25.60;94.80;;;;;;5072139;28;20169;-80
2022/06/28 09:31:19;;;;;;;3.92;2.40;;;25.60;95.60;;;;;;5057056;28;20167;-79
2022/06/28 09:34:03;;;;;;;3.97;2.60;;;25.50;95.00;;;;;;5053205;28;20235;-80
2022/06/28 09:36:41;;;;;;;5.32;2.25;;;26.10;94.50;;;;;;5054856;28;20173;-80
2022/06/28 09:39:16;;;;;;;9.10;1.92;;;26.80;94.30;;;;;;5057636;28;20177;-80
2022/06/28 09:41:52;;;;;;;7.45;2.50;;;26.90;93.50;;;;;;5053841;28;20196;-79
2022/06/28 09:44:23;;;;;;;6.47;2.70;;;26.40;93.40;;;;;;5053758;28;20536;-80
2022/06/28 09:46:49;;;;;;;6.40;2.25;;;24.80;93.20;;;;;;5054844;28;20204;-79
2022/06/28 09:49:14;;;;;;;3.30;1.67;;;24.60;94.40;;;;;;5052709;28;20177;-79
2022/06/28 09:51:41;;;;;;;3.30;2.05;;;25.90;95.70;;;;;;5054176;28;20249;-80
2022/06/28 09:54:09;;;;;;;6.40;1.85;;;25.60;93.30;;;;;;5053251;28;20202;-79
2022/06/28 09:56:55;;;;;;;5.32;2.05;;;24.70;94.10;;;;;;5067077;28;20177;-79
2022/06/28 09:59:27;;;;;;;3.60;1.70;;;24.70;94.80;;;;;;5068730;28;20239;-78
2022/06/28 10:01:55;;;;;;;4.95;1.70;;;25.80;94.30;;;;;;5071455;28;20197;-81
2022/06/28 10:04:26;;;;;;;6.63;2.30;;;26.50;92.60;;;;;;5070700;28;20184;-80
2022/06/28 10:06:52;;;;;;;7.22;1.90;;;26.20;91.90;;;;;;5059070;28;20165;-80
2022/06/28 10:09:20;;;;;;;4.55;1.63;;;25.50;92.20;;;;;;5053921;28;20170;-80
2022/06/28 10:17:29;;;;;;;3.00;1.67;;;25.80;90.90;;;;;;5054625;28;20167;-81
2022/06/28 10:19:57;;;;;;;4.07;1.40;;;26.40;92.60;;;;;;5056388;28;20249;-80
2022/06/28 10:22:23;;;;;;;5.57;1.70;;;26.60;91.20;;;;;;5059188;28;20473;-80
2022/06/28 10:24:48;;;;;;;2.85;1.35;;;26.50;87.70;;;;;;5054461;28;20174;-80
2022/06/28 10:27:14;;;;;;;3.55;1.30;;;25.10;90.70;;;;;;5055082;28;20190;-79
2022/06/28 10:30:00;;;;;;;4.90;1.42;;;25.80;91.80;;;;;;5053909;28;20276;-80
2022/06/28 10:32:42;;;;;;;3.13;1.30;;;25.80;90.70;;;;;;5055055;28;20201;-79
2022/06/28 10:35:08;;;;;;;2.20;1.40;;;25.90;91.70;;;;;;5056882;28;20199;-77
2022/06/28 10:37:34;;;;;;;4.38;1.45;;;27.60;90.80;;;;;;5054176;28;20173;-78
2022/06/28 10:40:24;;;;;;;6.07;1.77;;;27.20;89.80;;;;;;5054580;28;20575;-81
2022/06/28 10:42:52;;;;;;;2.05;1.13;;;26.40;91.20;;;;;;5055879;28;20208;-81
2022/06/28 10:45:21;;;;;;;4.10;1.60;;;26.90;90.90;;;;;;5063086;28;20196;-82
2022/06/28 10:48:10;;;;;;;3.00;1.30;;;26.50;88.50;;;;;;5054801;28;20201;-80
2022/06/28 10:50:59;;;;;;;2.22;1.20;;;26.40;90.10;;;;;;5054077;28;20169;-79
2022/06/28 10:53:26;;;;;;;2.70;1.75;;;27.00;90.30;;;;;;5054658;28;20239;-81
2022/06/28 10:56:14;;;;;;;2.80;1.20;;;26.70;87.30;;;;;;5052948;28;20181;-82
2022/06/28 10:59:02;;;;;;;4.18;1.30;;;26.80;88.20;;;;;;5051754;28;20180;-80
2022/06/28 11:01:40;;;;;;;2.22;1.10;;;27.10;85.10;;;;;;5052970;28;20180;-81
2022/06/28 11:04:24;;;;;;;1.63;1.10;;;27.10;87.00;;;;;;5054553;28;20307;-81
2022/06/28 11:07:17;;;;;;;4.05;1.30;;;26.80;85.10;;;;;;5055592;28;20165;-81
2022/06/28 11:09:48;;;;;;;2.63;1.13;;;27.40;85.80;;;;;;5056817;28;20555;-80
2022/06/28 11:12:18;;;;;;;4.30;1.30;;;27.80;86.20;;;;;;5054885;28;20197;-81
2022/06/28 11:14:59;;;;;;;3.83;1.15;;;28.00;84.60;;;;;;5055036;28;20268;-81
2022/06/28 11:17:38;;;;;;;3.28;1.25;;;27.50;82.80;;;;;;5059070;28;20193;-79
2022/06/28 11:20:06;;;;;;;3.08;1.10;;;28.10;81.40;;;;;;5054508;28;20193;-79
2022/06/28 11:22:40;;;;;;;1.27;1.08;;;27.50;84.40;;;;;;5056835;28;20209;-79
2022/06/28 11:25:09;;;;;;;2.83;1.05;;;27.50;83.60;;;;;;5053366;28;20176;-79
2022/06/28 11:27:42;;;;;;;1.67;1.15;;;27.50;82.30;;;;;;5054729;28;20185;-79
2022/06/28 11:30:09;;;;;;;6.82;1.30;;;28.50;83.90;;;;;;5052737;28;20200;-79
2022/06/28 11:32:39;;;;;;;3.50;1.20;;;28.60;79.10;;;;;;5054382;28;20198;-79
2022/06/28 11:35:09;;;;;;;2.08;1.10;;;27.80;81.90;;;;;;5056089;28;20174;-79
2022/06/28 11:37:54;;;;;;;1.95;1.00;;;27.10;84.60;;;;;;5056542;28;20657;-79
2022/06/28 11:40:23;;;;;;;3.10;1.20;;;27.40;82.80;;;;;;5058637;28;20219;-78
2022/06/28 11:43:04;;;;;;;4.47;1.25;;;28.10;83.90;;;;;;5074894;28;20244;-78
2022/06/28 11:45:32;;;;;;;4.82;1.23;;;28.50;80.10;;;;;;5062779;28;20204;-79
2022/06/28 11:48:03;;;;;;;2.78;1.17;;;28.30;85.30;;;;;;5057198;28;20177;-79
2022/06/28 11:50:41;;;;;;;3.67;1.17;;;27.50;82.50;;;;;;5057661;28;20227;-79
2022/06/28 11:53:08;;;;;;;3.22;1.42;;;26.80;83.30;;;;;;5056043;28;20200;-79
2022/06/28 11:55:46;;;;;;;3.80;1.15;;;26.40;84.70;;;;;;5056501;28;20184;-79
2022/06/28 11:58:14;;;;;;;2.85;1.23;;;26.40;83.00;;;;;;5056128;28;20246;-79
2022/06/28 12:00:59;;;;;;;3.28;1.45;;;26.60;82.00;;;;;;5055478;28;20253;-78
2022/06/28 12:03:25;;;;;;;2.67;1.38;;;26.80;81.80;;;;;;5055315;28;20676;-78
2022/06/28 12:05:58;;;;;;;2.83;1.45;;;27.20;83.80;;;;;;5057386;28;20180;-78
2022/06/28 12:08:42;;;;;;;2.35;1.25;;;26.60;80.60;;;;;;5056731;28;20177;-78
2022/06/28 12:11:23;;;;;;;2.83;1.40;;;26.50;81.80;;;;;;5056954;28;20196;-78
2022/06/28 12:13:49;;;;;;;5.60;1.20;;;25.90;83.50;;;;;;5055876;28;20707;-78
2022/06/28 12:16:18;;;;;;;4.95;1.38;;;25.90;82.10;;;;;;5055822;28;20181;-78
2022/06/28 12:18:52;;;;;;;2.50;1.40;;;25.40;84.00;;;;;;5069493;28;20188;-79
2022/06/28 12:21:18;;;;;;;7.45;1.52;;;25.10;83.50;;;;;;5054225;28;20647;-78
2022/06/28 12:23:52;;;;;;;2.88;1.33;;;25.50;85.40;;;;;;5054640;28;20224;-79
2022/06/28 12:26:18;;;;;;;2.15;1.20;;;25.70;81.50;;;;;;5055388;28;20166;-80
2022/06/28 12:28:44;;;;;;;9.73;1.38;;;25.60;83.30;;;;;;5054917;28;20239;-80
2022/06/28 12:31:10;;;;;;;3.17;1.20;;;25.40;84.30;;;;;;5054417;28;20184;-80
2022/06/28 12:33:36;;;;;;;2.60;1.33;;;25.30;86.00;;;;;;5054899;28;20219;-82
2022/06/28 12:36:02;;;;;;;3.20;1.40;;;25.50;84.20;;;;;;5054106;28;20541;-81
2022/06/28 12:38:27;;;;;;;3.55;1.33;;;25.40;85.70;;;;;;5054828;28;20196;-81
2022/06/28 12:40:53;;;;;;;2.90;1.63;;;24.90;85.00;;;;;;5054851;28;20180;-80
2022/06/28 12:43:19;;;;;;;3.03;1.70;;;25.20;86.30;;;;;;5054664;28;20236;-81
2022/06/28 12:45:44;;;;;;;7.57;1.58;;;25.30;83.00;;;;;;5053669;28;20667;-83
2022/06/28 12:48:10;;;;;;;3.85;1.50;;;25.40;84.30;;;;;;5054318;28;20177;-81
2022/06/28 12:50:36;;;;;;;5.22;1.40;;;25.00;82.50;;;;;;5053777;28;20173;-81
2022/06/28 12:53:02;;;;;;;3.13;1.55;;;24.60;84.90;;;;;;5054235;28;20208;-81
2022/06/28 12:55:27;;;;;;;4.50;1.67;;;24.90;85.10;;;;;;5054592;28;20533;-81
2022/06/28 12:57:53;;;;;;;2.35;1.52;;;24.60;84.10;;;;;;5053685;28;20169;-81